sensor_id;sensor_type;location;lat;lon;timestamp;temperature;humidity
51867;DHT22;52862;52.504;13.480;2023-02-28T00:01:17;2.80;99.90
51867;DHT22;52862;52.504;13.480;2023-02-28T00:03:44;2.90;99.90
51867;DHT22;52862;52.504;13.480;2023-02-28T00:06:11;2.90;99.90
51867;DHT22;52862;52.504;13.480;2023-02-28T00:08:38;2.90;99.90
51867;DHT22;52862;52.504;13.480;2023-02-28T00:11:08;2.70;99.90
51867;DHT22;52862;52.504;13.480;2023-02-28T00:13:37;2.80;99.90
51867;DHT22;52862;52.504;13.480;2023-02-28T00:16:05;3.10;99.90
51867;DHT22;52862;52.504;13.480;2023-02-28T00:18:33;3.10;99.90
51867;DHT22;52862;52.504;13.480;2023-02-28T00:20:59;2.90;99.90
51867;DHT22;52862;52.504;13.480;2023-02-28T00:23:26;2.90;99.90
51867;DHT22;52862;52.504;13.480;2023-02-28T00:25:54;3.00;99.90
51867;DHT22;52862;52.504;13.480;2023-02-28T00:28:22;2.90;99.90
51867;DHT22;52862;52.504;13.480;2023-02-28T00:30:49;3.00;99.90
51867;DHT22;52862;52.504;13.480;2023-02-28T00:33:16;2.80;99.90
51867;DHT22;52862;52.504;13.480;2023-02-28T00:35:43;2.90;99.90
51867;DHT22;52862;52.504;13.480;2023-02-28T00:38:12;2.90;99.90
51867;DHT22;52862;52.504;13.480;2023-02-28T00:40:39;2.80;99.90
51867;DHT22;52862;52.504;13.480;2023-02-28T00:43:05;2.80;99.90
51867;DHT22;52862;52.504;13.480;2023-02-28T00:45:33;2.80;99.90
51867;DHT22;52862;52.504;13.480;2023-02-28T00:47:59;2.80;99.90
51867;DHT22;52862;52.504;13.480;2023-02-28T00:50:26;2.80;99.90
51867;DHT22;52862;52.504;13.480;2023-02-28T00:52:53;2.90;99.90
51867;DHT22;52862;52.504;13.480;2023-02-28T00:55:20;2.80;99.90
51867;DHT22;52862;52.504;13.480;2023-02-28T00:57:46;2.80;99.90
51867;DHT22;52862;52.504;13.480;2023-02-28T01:00:14;2.80;99.90
51867;DHT22;52862;52.504;13.480;2023-02-28T01:02:41;2.70;99.90
51867;DHT22;52862;52.504;13.480;2023-02-28T01:05:08;2.80;99.90
51867;DHT22;52862;52.504;13.480;2023-02-28T01:07:35;2.90;99.90
51867;DHT22;52862;52.504;13.480;2023-02-28T01:10:01;2.70;99.90
51867;DHT22;52862;52.504;13.480;2023-02-28T01:12:31;2.70;99.90
51867;DHT22;52862;52.504;13.480;2023-02-28T01:14:57;2.70;99.90
51867;DHT22;52862;52.504;13.480;2023-02-28T01:17:24;2.70;99.90
51867;DHT22;52862;52.504;13.480;2023-02-28T01:19:54;2.80;99.90
51867;DHT22;52862;52.504;13.480;2023-02-28T01:22:21;2.70;99.90
51867;DHT22;52862;52.504;13.480;2023-02-28T01:24:48;2.70;99.90
51867;DHT22;52862;52.504;13.480;2023-02-28T01:27:14;2.30;99.90
51867;DHT22;52862;52.504;13.480;2023-02-28T01:29:41;2.60;99.90
51867;DHT22;52862;52.504;13.480;2023-02-28T01:32:08;2.60;99.90
51867;DHT22;52862;52.504;13.480;2023-02-28T01:34:35;2.50;99.90
51867;DHT22;52862;52.504;13.480;2023-02-28T01:37:02;2.50;99.90
51867;DHT22;52862;52.504;13.480;2023-02-28T01:39:29;2.60;99.90
51867;DHT22;52862;52.504;13.480;2023-02-28T01:41:56;2.60;99.90
51867;DHT22;52862;52.504;13.480;2023-02-28T01:45:04;2.40;99.90
51867;DHT22;52862;52.504;13.480;2023-02-28T01:47:35;2.40;99.90
51867;DHT22;52862;52.504;13.480;2023-02-28T01:50:06;3.00;99.90
51867;DHT22;52862;52.504;13.480;2023-02-28T01:52:34;2.10;99.90
51867;DHT22;52862;52.504;13.480;2023-02-28T01:55:02;2.10;99.90
51867;DHT22;52862;52.504;13.480;2023-02-28T01:57:34;2.10;99.90
51867;DHT22;52862;52.504;13.480;2023-02-28T02:00:06;2.10;99.90
51867;DHT22;52862;52.504;13.480;2023-02-28T02:02:34;2.00;99.90
51867;DHT22;52862;52.504;13.480;2023-02-28T02:05:04;2.10;99.90
51867;DHT22;52862;52.504;13.480;2023-02-28T02:07:35;1.90;99.90
51867;DHT22;52862;52.504;13.480;2023-02-28T02:10:05;1.90;99.90
51867;DHT22;52862;52.504;13.480;2023-02-28T02:12:47;1.80;99.90
51867;DHT22;52862;52.504;13.480;2023-02-28T02:15:20;1.90;99.90
51867;DHT22;52862;52.504;13.480;2023-02-28T02:17:53;1.70;99.90
51867;DHT22;52862;52.504;13.480;2023-02-28T02:20:57;1.60;99.90
51867;DHT22;52862;52.504;13.480;2023-02-28T02:27:06;1.40;99.90
51867;DHT22;52862;52.504;13.480;2023-02-28T02:29:55;1.30;99.90
51867;DHT22;52862;52.504;13.480;2023-02-28T02:33:03;1.40;99.90
51867;DHT22;52862;52.504;13.480;2023-02-28T02:35:35;1.70;99.90
51867;DHT22;52862;52.504;13.480;2023-02-28T02:38:09;1.50;99.90
51867;DHT22;52862;52.504;13.480;2023-02-28T02:40:42;1.60;99.90
51867;DHT22;52862;52.504;13.480;2023-02-28T02:43:15;1.40;99.90
51867;DHT22;52862;52.504;13.480;2023-02-28T02:45:46;1.40;99.90
51867;DHT22;52862;52.504;13.480;2023-02-28T02:48:17;1.10;99.90
51867;DHT22;52862;52.504;13.480;2023-02-28T02:50:49;1.00;99.90
51867;DHT22;52862;52.504;13.480;2023-02-28T02:53:18;1.20;99.90
51867;DHT22;52862;52.504;13.480;2023-02-28T02:55:50;0.60;99.90
51867;DHT22;52862;52.504;13.480;2023-02-28T02:58:23;0.70;99.90
51867;DHT22;52862;52.504;13.480;2023-02-28T03:00:53;1.10;99.90
51867;DHT22;52862;52.504;13.480;2023-02-28T03:03:22;0.60;99.90
51867;DHT22;52862;52.504;13.480;2023-02-28T03:05:56;0.80;99.90
51867;DHT22;52862;52.504;13.480;2023-02-28T03:08:24;1.10;99.90
51867;DHT22;52862;52.504;13.480;2023-02-28T03:10:54;1.10;99.90
51867;DHT22;52862;52.504;13.480;2023-02-28T03:13:41;1.00;99.90
51867;DHT22;52862;52.504;13.480;2023-02-28T03:16:25;1.10;99.90
51867;DHT22;52862;52.504;13.480;2023-02-28T03:19:01;1.10;99.90
51867;DHT22;52862;52.504;13.480;2023-02-28T03:21:35;1.00;99.90
51867;DHT22;52862;52.504;13.480;2023-02-28T03:24:07;0.40;99.90
51867;DHT22;52862;52.504;13.480;2023-02-28T03:26:38;1.00;99.90
51867;DHT22;52862;52.504;13.480;2023-02-28T03:29:12;1.00;99.90
51867;DHT22;52862;52.504;13.480;2023-02-28T03:31:46;0.90;99.90
51867;DHT22;52862;52.504;13.480;2023-02-28T03:34:19;0.90;99.90
51867;DHT22;52862;52.504;13.480;2023-02-28T03:36:50;0.80;99.90
51867;DHT22;52862;52.504;13.480;2023-02-28T03:39:20;1.10;99.90
51867;DHT22;52862;52.504;13.480;2023-02-28T03:41:50;0.90;99.90
51867;DHT22;52862;52.504;13.480;2023-02-28T03:44:22;0.80;99.90
51867;DHT22;52862;52.504;13.480;2023-02-28T03:46:55;1.00;99.90
51867;DHT22;52862;52.504;13.480;2023-02-28T03:49:26;0.80;99.90
51867;DHT22;52862;52.504;13.480;2023-02-28T03:51:56;1.10;99.90
51867;DHT22;52862;52.504;13.480;2023-02-28T03:54:29;0.70;99.90
51867;DHT22;52862;52.504;13.480;2023-02-28T03:57:00;0.40;99.90
51867;DHT22;52862;52.504;13.480;2023-02-28T03:59:34;0.90;99.90
51867;DHT22;52862;52.504;13.480;2023-02-28T04:02:02;0.60;99.90
51867;DHT22;52862;52.504;13.480;2023-02-28T04:04:29;0.60;99.90
51867;DHT22;52862;52.504;13.480;2023-02-28T04:07:03;0.60;99.90
51867;DHT22;52862;52.504;13.480;2023-02-28T04:09:30;0.50;99.90
51867;DHT22;52862;52.504;13.480;2023-02-28T04:11:57;0.70;99.90
51867;DHT22;52862;52.504;13.480;2023-02-28T04:14:23;0.30;99.90
51867;DHT22;52862;52.504;13.480;2023-02-28T04:16:50;-0.10;99.90
51867;DHT22;52862;52.504;13.480;2023-02-28T04:19:18;0.30;99.90
51867;DHT22;52862;52.504;13.480;2023-02-28T04:21:46;0.10;99.90
51867;DHT22;52862;52.504;13.480;2023-02-28T04:24:15;0.30;99.90
51867;DHT22;52862;52.504;13.480;2023-02-28T04:26:44;0.20;99.90
51867;DHT22;52862;52.504;13.480;2023-02-28T04:29:12;0.60;99.90
51867;DHT22;52862;52.504;13.480;2023-02-28T04:31:39;0.10;99.90
51867;DHT22;52862;52.504;13.480;2023-02-28T04:34:06;0.50;99.90
51867;DHT22;52862;52.504;13.480;2023-02-28T04:36:33;0.30;99.90
51867;DHT22;52862;52.504;13.480;2023-02-28T04:39:00;0.50;99.90
51867;DHT22;52862;52.504;13.480;2023-02-28T04:41:27;0.40;99.90
51867;DHT22;52862;52.504;13.480;2023-02-28T04:43:58;-0.50;99.90
51867;DHT22;52862;52.504;13.480;2023-02-28T04:46:25;0.40;99.90
51867;DHT22;52862;52.504;13.480;2023-02-28T04:48:51;0.40;99.90
51867;DHT22;52862;52.504;13.480;2023-02-28T04:51:19;-0.10;99.90
51867;DHT22;52862;52.504;13.480;2023-02-28T04:53:46;0.50;99.90
51867;DHT22;52862;52.504;13.480;2023-02-28T04:56:15;0.20;99.90
51867;DHT22;52862;52.504;13.480;2023-02-28T04:58:43;0.20;99.90
51867;DHT22;52862;52.504;13.480;2023-02-28T05:01:19;0.10;99.90
51867;DHT22;52862;52.504;13.480;2023-02-28T05:03:45;0.00;99.90
51867;DHT22;52862;52.504;13.480;2023-02-28T05:06:13;0.30;99.90
51867;DHT22;52862;52.504;13.480;2023-02-28T05:08:40;-0.10;99.90
51867;DHT22;52862;52.504;13.480;2023-02-28T05:11:14;0.30;99.90
51867;DHT22;52862;52.504;13.480;2023-02-28T05:13:42;-0.60;99.90
51867;DHT22;52862;52.504;13.480;2023-02-28T05:16:08;0.40;99.90
51867;DHT22;52862;52.504;13.480;2023-02-28T05:18:35;-0.40;99.90
51867;DHT22;52862;52.504;13.480;2023-02-28T05:21:02;0.30;99.90
51867;DHT22;52862;52.504;13.480;2023-02-28T05:23:29;0.30;99.90
51867;DHT22;52862;52.504;13.480;2023-02-28T05:25:56;0.10;99.90
51867;DHT22;52862;52.504;13.480;2023-02-28T05:30:50;-0.10;99.90
51867;DHT22;52862;52.504;13.480;2023-02-28T05:33:17;0.10;99.90
51867;DHT22;52862;52.504;13.480;2023-02-28T05:35:44;0.10;99.90
51867;DHT22;52862;52.504;13.480;2023-02-28T05:38:10;0.20;99.90
51867;DHT22;52862;52.504;13.480;2023-02-28T05:40:38;0.00;99.90
51867;DHT22;52862;52.504;13.480;2023-02-28T05:43:05;0.10;99.90
51867;DHT22;52862;52.504;13.480;2023-02-28T05:45:32;-0.70;99.90
51867;DHT22;52862;52.504;13.480;2023-02-28T05:47:59;-0.60;99.90
51867;DHT22;52862;52.504;13.480;2023-02-28T05:50:26;0.00;99.90
51867;DHT22;52862;52.504;13.480;2023-02-28T05:52:53;-0.60;99.90
51867;DHT22;52862;52.504;13.480;2023-02-28T05:55:19;-0.20;99.90
51867;DHT22;52862;52.504;13.480;2023-02-28T06:00:14;-0.10;99.90
51867;DHT22;52862;52.504;13.480;2023-02-28T06:02:41;-0.40;99.90
51867;DHT22;52862;52.504;13.480;2023-02-28T06:05:13;-0.20;99.90
51867;DHT22;52862;52.504;13.480;2023-02-28T06:10:08;-0.10;99.90
51867;DHT22;52862;52.504;13.480;2023-02-28T06:12:34;0.10;99.90
51867;DHT22;52862;52.504;13.480;2023-02-28T06:15:01;-0.10;99.90
51867;DHT22;52862;52.504;13.480;2023-02-28T06:17:28;0.00;99.90
51867;DHT22;52862;52.504;13.480;2023-02-28T06:19:56;-0.10;99.90
51867;DHT22;52862;52.504;13.480;2023-02-28T06:22:23;0.50;99.90
51867;DHT22;52862;52.504;13.480;2023-02-28T06:24:50;-0.40;99.90
51867;DHT22;52862;52.504;13.480;2023-02-28T06:27:18;0.70;99.90
51867;DHT22;52862;52.504;13.480;2023-02-28T06:29:46;0.00;99.90
51867;DHT22;52862;52.504;13.480;2023-02-28T06:34:40;0.70;99.90
51867;DHT22;52862;52.504;13.480;2023-02-28T06:37:08;0.30;99.90
51867;DHT22;52862;52.504;13.480;2023-02-28T06:39:36;0.00;99.90
51867;DHT22;52862;52.504;13.480;2023-02-28T06:42:02;0.40;99.90
51867;DHT22;52862;52.504;13.480;2023-02-28T06:44:29;0.20;99.90
51867;DHT22;52862;52.504;13.480;2023-02-28T06:47:01;0.20;99.90
51867;DHT22;52862;52.504;13.480;2023-02-28T06:49:29;0.50;99.90
51867;DHT22;52862;52.504;13.480;2023-02-28T06:51:56;0.30;99.90
51867;DHT22;52862;52.504;13.480;2023-02-28T06:54:22;0.70;99.90
51867;DHT22;52862;52.504;13.480;2023-02-28T06:56:50;0.80;99.90
51867;DHT22;52862;52.504;13.480;2023-02-28T07:01:44;0.60;99.90
51867;DHT22;52862;52.504;13.480;2023-02-28T07:04:11;1.00;99.90
51867;DHT22;52862;52.504;13.480;2023-02-28T07:06:39;0.80;99.90
51867;DHT22;52862;52.504;13.480;2023-02-28T07:09:05;1.20;99.90
51867;DHT22;52862;52.504;13.480;2023-02-28T07:11:32;1.10;99.90
51867;DHT22;52862;52.504;13.480;2023-02-28T07:13:59;0.70;99.90
51867;DHT22;52862;52.504;13.480;2023-02-28T07:16:26;1.40;99.90
51867;DHT22;52862;52.504;13.480;2023-02-28T07:18:53;1.50;99.90
51867;DHT22;52862;52.504;13.480;2023-02-28T07:21:22;1.60;99.90
51867;DHT22;52862;52.504;13.480;2023-02-28T07:23:49;1.90;99.90
51867;DHT22;52862;52.504;13.480;2023-02-28T07:26:18;2.00;99.90
51867;DHT22;52862;52.504;13.480;2023-02-28T07:28:46;1.90;99.90
51867;DHT22;52862;52.504;13.480;2023-02-28T07:31:14;2.10;99.90
51867;DHT22;52862;52.504;13.480;2023-02-28T07:33:41;2.50;99.90
51867;DHT22;52862;52.504;13.480;2023-02-28T07:36:10;2.50;99.90
51867;DHT22;52862;52.504;13.480;2023-02-28T07:38:41;2.50;99.90
51867;DHT22;52862;52.504;13.480;2023-02-28T07:41:08;2.70;99.90
51867;DHT22;52862;52.504;13.480;2023-02-28T07:43:35;2.90;99.90
51867;DHT22;52862;52.504;13.480;2023-02-28T07:46:03;2.90;99.90
51867;DHT22;52862;52.504;13.480;2023-02-28T07:48:30;3.10;99.90
51867;DHT22;52862;52.504;13.480;2023-02-28T07:50:58;3.20;99.90
51867;DHT22;52862;52.504;13.480;2023-02-28T07:53:25;3.50;99.90
51867;DHT22;52862;52.504;13.480;2023-02-28T07:55:54;3.80;99.90
51867;DHT22;52862;52.504;13.480;2023-02-28T07:58:23;3.90;99.90
51867;DHT22;52862;52.504;13.480;2023-02-28T08:00:50;3.10;99.90
51867;DHT22;52862;52.504;13.480;2023-02-28T08:03:17;4.10;99.90
51867;DHT22;52862;52.504;13.480;2023-02-28T08:05:45;4.10;99.90
51867;DHT22;52862;52.504;13.480;2023-02-28T08:08:12;4.20;99.90
51867;DHT22;52862;52.504;13.480;2023-02-28T08:10:39;4.00;99.90
51867;DHT22;52862;52.504;13.480;2023-02-28T08:13:05;4.20;99.90
51867;DHT22;52862;52.504;13.480;2023-02-28T08:15:32;4.10;99.90
51867;DHT22;52862;52.504;13.480;2023-02-28T08:17:59;4.20;99.90
51867;DHT22;52862;52.504;13.480;2023-02-28T08:20:26;4.30;99.90
51867;DHT22;52862;52.504;13.480;2023-02-28T08:22:53;4.20;99.90
51867;DHT22;52862;52.504;13.480;2023-02-28T08:25:20;4.50;99.90
51867;DHT22;52862;52.504;13.480;2023-02-28T08:27:47;4.50;99.90
51867;DHT22;52862;52.504;13.480;2023-02-28T08:30:14;4.60;99.90
51867;DHT22;52862;52.504;13.480;2023-02-28T08:32:41;4.90;99.90
51867;DHT22;52862;52.504;13.480;2023-02-28T08:35:09;4.90;99.90
51867;DHT22;52862;52.504;13.480;2023-02-28T08:37:35;5.10;99.90
51867;DHT22;52862;52.504;13.480;2023-02-28T08:40:03;5.10;99.90
51867;DHT22;52862;52.504;13.480;2023-02-28T08:42:30;5.10;99.90
51867;DHT22;52862;52.504;13.480;2023-02-28T08:44:58;4.90;99.90
51867;DHT22;52862;52.504;13.480;2023-02-28T08:47:24;4.80;99.90
51867;DHT22;52862;52.504;13.480;2023-02-28T08:49:51;4.90;99.90
51867;DHT22;52862;52.504;13.480;2023-02-28T08:52:18;4.90;99.90
51867;DHT22;52862;52.504;13.480;2023-02-28T08:54:44;5.00;99.90
51867;DHT22;52862;52.504;13.480;2023-02-28T08:57:12;5.10;99.90
51867;DHT22;52862;52.504;13.480;2023-02-28T08:59:38;5.10;99.90
51867;DHT22;52862;52.504;13.480;2023-02-28T09:02:05;5.20;99.90
51867;DHT22;52862;52.504;13.480;2023-02-28T09:04:33;5.40;99.90
51867;DHT22;52862;52.504;13.480;2023-02-28T09:07:00;5.40;99.90
51867;DHT22;52862;52.504;13.480;2023-02-28T09:09:26;5.40;99.90
51867;DHT22;52862;52.504;13.480;2023-02-28T09:11:55;5.50;99.80
51867;DHT22;52862;52.504;13.480;2023-02-28T09:14:22;5.60;99.90
51867;DHT22;52862;52.504;13.480;2023-02-28T09:16:49;5.50;99.90
51867;DHT22;52862;52.504;13.480;2023-02-28T09:19:16;5.90;99.90
51867;DHT22;52862;52.504;13.480;2023-02-28T09:21:42;6.10;99.40
51867;DHT22;52862;52.504;13.480;2023-02-28T09:24:09;6.20;99.20
51867;DHT22;52862;52.504;13.480;2023-02-28T09:26:38;6.00;99.10
51867;DHT22;52862;52.504;13.480;2023-02-28T09:29:17;6.30;97.60
51867;DHT22;52862;52.504;13.480;2023-02-28T09:31:45;6.40;97.60
51867;DHT22;52862;52.504;13.480;2023-02-28T09:34:12;6.40;97.60
51867;DHT22;52862;52.504;13.480;2023-02-28T09:36:39;6.40;97.90
51867;DHT22;52862;52.504;13.480;2023-02-28T09:39:12;6.40;97.60
51867;DHT22;52862;52.504;13.480;2023-02-28T09:41:42;6.30;97.40
51867;DHT22;52862;52.504;13.480;2023-02-28T09:44:20;6.10;97.90
51867;DHT22;52862;52.504;13.480;2023-02-28T09:46:53;6.30;98.20
51867;DHT22;52862;52.504;13.480;2023-02-28T09:49:23;6.00;95.90
51867;DHT22;52862;52.504;13.480;2023-02-28T09:51:56;6.10;96.20
51867;DHT22;52862;52.504;13.480;2023-02-28T09:54:28;6.30;97.00
51867;DHT22;52862;52.504;13.480;2023-02-28T09:56:59;6.50;96.40
51867;DHT22;52862;52.504;13.480;2023-02-28T09:59:34;6.30;95.80
51867;DHT22;52862;52.504;13.480;2023-02-28T10:02:17;6.40;95.40
51867;DHT22;52862;52.504;13.480;2023-02-28T10:04:48;6.00;95.20
51867;DHT22;52862;52.504;13.480;2023-02-28T10:07:26;5.90;96.10
51867;DHT22;52862;52.504;13.480;2023-02-28T10:09:58;6.30;96.90
51867;DHT22;52862;52.504;13.480;2023-02-28T10:12:28;6.40;95.90
51867;DHT22;52862;52.504;13.480;2023-02-28T10:14:58;6.60;95.20
51867;DHT22;52862;52.504;13.480;2023-02-28T10:17:30;6.40;95.70
51867;DHT22;52862;52.504;13.480;2023-02-28T10:20:23;6.20;96.30
51867;DHT22;52862;52.504;13.480;2023-02-28T10:22:59;6.40;97.10
51867;DHT22;52862;52.504;13.480;2023-02-28T10:25:28;6.10;96.40
51867;DHT22;52862;52.504;13.480;2023-02-28T10:27:58;6.10;96.30
51867;DHT22;52862;52.504;13.480;2023-02-28T10:30:27;6.20;95.60
51867;DHT22;52862;52.504;13.480;2023-02-28T10:32:55;6.50;95.60
51867;DHT22;52862;52.504;13.480;2023-02-28T10:35:25;6.50;94.90
51867;DHT22;52862;52.504;13.480;2023-02-28T10:37:55;6.50;94.90
51867;DHT22;52862;52.504;13.480;2023-02-28T10:40:29;6.70;94.80
51867;DHT22;52862;52.504;13.480;2023-02-28T10:42:58;6.90;95.00
51867;DHT22;52862;52.504;13.480;2023-02-28T10:45:25;7.10;94.20
51867;DHT22;52862;52.504;13.480;2023-02-28T10:47:55;6.80;95.20
51867;DHT22;52862;52.504;13.480;2023-02-28T10:50:33;6.70;94.80
51867;DHT22;52862;52.504;13.480;2023-02-28T10:53:27;6.40;95.10
51867;DHT22;52862;52.504;13.480;2023-02-28T10:56:00;6.50;95.70
51867;DHT22;52862;52.504;13.480;2023-02-28T10:58:29;6.60;95.60
51867;DHT22;52862;52.504;13.480;2023-02-28T11:00:56;6.70;95.00
51867;DHT22;52862;52.504;13.480;2023-02-28T11:03:29;6.70;95.10
51867;DHT22;52862;52.504;13.480;2023-02-28T11:05:56;6.70;95.50
51867;DHT22;52862;52.504;13.480;2023-02-28T11:08:23;6.60;94.80
51867;DHT22;52862;52.504;13.480;2023-02-28T11:10:55;6.50;95.40
51867;DHT22;52862;52.504;13.480;2023-02-28T11:13:26;6.80;96.00
51867;DHT22;52862;52.504;13.480;2023-02-28T11:15:55;6.60;95.40
51867;DHT22;52862;52.504;13.480;2023-02-28T11:18:27;6.80;95.30
51867;DHT22;52862;52.504;13.480;2023-02-28T11:20:57;6.90;95.60
51867;DHT22;52862;52.504;13.480;2023-02-28T11:23:25;6.90;95.10
51867;DHT22;52862;52.504;13.480;2023-02-28T11:25:57;6.90;95.20
51867;DHT22;52862;52.504;13.480;2023-02-28T11:28:27;7.00;95.70
51867;DHT22;52862;52.504;13.480;2023-02-28T11:31:09;7.00;95.60
51867;DHT22;52862;52.504;13.480;2023-02-28T11:33:44;7.00;95.40
51867;DHT22;52862;52.504;13.480;2023-02-28T11:36:13;6.90;95.30
51867;DHT22;52862;52.504;13.480;2023-02-28T11:38:41;7.00;95.50
51867;DHT22;52862;52.504;13.480;2023-02-28T11:41:25;7.00;95.10
51867;DHT22;52862;52.504;13.480;2023-02-28T11:44:08;6.70;94.90
51867;DHT22;52862;52.504;13.480;2023-02-28T11:46:43;6.50;95.40
51867;DHT22;52862;52.504;13.480;2023-02-28T11:49:24;5.90;96.20
51867;DHT22;52862;52.504;13.480;2023-02-28T11:51:55;6.10;97.10
51867;DHT22;52862;52.504;13.480;2023-02-28T11:54:32;6.30;96.80
51867;DHT22;52862;52.504;13.480;2023-02-28T11:57:14;6.30;96.20
51867;DHT22;52862;52.504;13.480;2023-02-28T11:59:51;6.50;96.00
51867;DHT22;52862;52.504;13.480;2023-02-28T12:02:26;6.60;95.70
51867;DHT22;52862;52.504;13.480;2023-02-28T12:05:09;6.50;95.60
51867;DHT22;52862;52.504;13.480;2023-02-28T12:07:44;6.50;95.80
51867;DHT22;52862;52.504;13.480;2023-02-28T12:10:21;6.60;95.30
51867;DHT22;52862;52.504;13.480;2023-02-28T12:12:58;6.60;95.60
51867;DHT22;52862;52.504;13.480;2023-02-28T12:15:47;6.50;95.30
51867;DHT22;52862;52.504;13.480;2023-02-28T12:18:27;6.60;95.90
51867;DHT22;52862;52.504;13.480;2023-02-28T12:21:00;6.70;95.80
51867;DHT22;52862;52.504;13.480;2023-02-28T12:26:37;6.80;94.40
51867;DHT22;52862;52.504;13.480;2023-02-28T12:29:12;6.70;94.70
51867;DHT22;52862;52.504;13.480;2023-02-28T12:31:44;6.60;95.20
51867;DHT22;52862;52.504;13.480;2023-02-28T12:34:15;6.70;95.00
51867;DHT22;52862;52.504;13.480;2023-02-28T12:36:44;6.70;94.70
51867;DHT22;52862;52.504;13.480;2023-02-28T12:39:16;6.60;94.50
51867;DHT22;52862;52.504;13.480;2023-02-28T12:41:48;6.50;94.70
51867;DHT22;52862;52.504;13.480;2023-02-28T12:44:20;6.40;94.60
51867;DHT22;52862;52.504;13.480;2023-02-28T12:46:50;6.70;94.90
51867;DHT22;52862;52.504;13.480;2023-02-28T12:49:22;6.70;93.80
51867;DHT22;52862;52.504;13.480;2023-02-28T12:51:51;6.50;94.20
51867;DHT22;52862;52.504;13.480;2023-02-28T12:54:23;6.90;95.10
51867;DHT22;52862;52.504;13.480;2023-02-28T12:56:56;10.00;92.30
51867;DHT22;52862;52.504;13.480;2023-02-28T12:59:30;16.50;71.10
51867;DHT22;52862;52.504;13.480;2023-02-28T13:02:13;20.90;51.60
51867;DHT22;52862;52.504;13.480;2023-02-28T13:04:57;22.50;44.80
51867;DHT22;52862;52.504;13.480;2023-02-28T13:10:39;22.30;42.50
51867;DHT22;52862;52.504;13.480;2023-02-28T13:13:14;22.00;42.20
51867;DHT22;52862;52.504;13.480;2023-02-28T13:16:01;24.10;40.80
51867;DHT22;52862;52.504;13.480;2023-02-28T13:18:31;22.90;38.60
51867;DHT22;52862;52.504;13.480;2023-02-28T13:21:00;25.10;39.20
51867;DHT22;52862;52.504;13.480;2023-02-28T13:23:57;24.10;37.80
51867;DHT22;52862;52.504;13.480;2023-02-28T13:29:56;22.60;40.50
51867;DHT22;52862;52.504;13.480;2023-02-28T13:32:32;23.50;39.50
51867;DHT22;52862;52.504;13.480;2023-02-28T13:38:15;23.50;38.80
51867;DHT22;52862;52.504;13.480;2023-02-28T13:40:44;24.80;37.40
51867;DHT22;52862;52.504;13.480;2023-02-28T13:43:11;24.70;36.60
51867;DHT22;52862;52.504;13.480;2023-02-28T13:45:38;25.00;36.70
51867;DHT22;52862;52.504;13.480;2023-02-28T13:48:16;26.60;36.60
51867;DHT22;52862;52.504;13.480;2023-02-28T13:50:44;25.90;35.20
51867;DHT22;52862;52.504;13.480;2023-02-28T13:56:32;26.10;35.30
51867;DHT22;52862;52.504;13.480;2023-02-28T13:59:08;24.90;34.80
51867;DHT22;52862;52.504;13.480;2023-02-28T14:01:55;23.60;36.50
51867;DHT22;52862;52.504;13.480;2023-02-28T14:04:51;24.70;36.90
51867;DHT22;52862;52.504;13.480;2023-02-28T14:07:23;26.00;35.70
51867;DHT22;52862;52.504;13.480;2023-02-28T14:09:57;27.30;35.10
51867;DHT22;52862;52.504;13.480;2023-02-28T14:15:44;26.30;34.60
51867;DHT22;52862;52.504;13.480;2023-02-28T14:18:28;25.00;34.70
51867;DHT22;52862;52.504;13.480;2023-02-28T14:21:01;24.50;35.80
51867;DHT22;52862;52.504;13.480;2023-02-28T14:27:05;25.60;34.60
51867;DHT22;52862;52.504;13.480;2023-02-28T14:30:03;23.60;34.60
51867;DHT22;52862;52.504;13.480;2023-02-28T14:32:43;23.20;36.30
51867;DHT22;52862;52.504;13.480;2023-02-28T14:35:36;23.30;36.20
51867;DHT22;52862;52.504;13.480;2023-02-28T14:38:14;25.10;35.80
51867;DHT22;52862;52.504;13.480;2023-02-28T14:40:43;25.00;35.00
51867;DHT22;52862;52.504;13.480;2023-02-28T14:43:20;24.40;34.70
51867;DHT22;52862;52.504;13.480;2023-02-28T14:45:50;23.00;35.50
51867;DHT22;52862;52.504;13.480;2023-02-28T14:48:19;17.80;40.70
51867;DHT22;52862;52.504;13.480;2023-02-28T14:50:49;14.00;46.80
51867;DHT22;52862;52.504;13.480;2023-02-28T14:53:19;11.60;52.60
51867;DHT22;52862;52.504;13.480;2023-02-28T14:55:48;10.30;56.10
51867;DHT22;52862;52.504;13.480;2023-02-28T14:58:22;9.20;58.50
51867;DHT22;52862;52.504;13.480;2023-02-28T15:00:51;8.30;60.50
51867;DHT22;52862;52.504;13.480;2023-02-28T15:03:22;7.80;61.30
51867;DHT22;52862;52.504;13.480;2023-02-28T15:05:53;7.60;62.80
51867;DHT22;52862;52.504;13.480;2023-02-28T15:08:20;7.30;63.90
51867;DHT22;52862;52.504;13.480;2023-02-28T15:10:52;7.00;64.60
51867;DHT22;52862;52.504;13.480;2023-02-28T15:13:20;6.90;65.90
51867;DHT22;52862;52.504;13.480;2023-02-28T15:15:51;6.60;66.60
51867;DHT22;52862;52.504;13.480;2023-02-28T15:18:36;6.00;67.40
51867;DHT22;52862;52.504;13.480;2023-02-28T15:21:08;6.40;68.60
51867;DHT22;52862;52.504;13.480;2023-02-28T15:23:40;6.30;68.90
51867;DHT22;52862;52.504;13.480;2023-02-28T15:26:11;6.10;69.10
51867;DHT22;52862;52.504;13.480;2023-02-28T15:28:40;6.10;69.50
51867;DHT22;52862;52.504;13.480;2023-02-28T15:31:22;6.00;69.80
51867;DHT22;52862;52.504;13.480;2023-02-28T15:33:55;6.00;70.20
51867;DHT22;52862;52.504;13.480;2023-02-28T15:36:25;6.10;71.10
51867;DHT22;52862;52.504;13.480;2023-02-28T15:38:54;6.10;71.70
51867;DHT22;52862;52.504;13.480;2023-02-28T15:41:28;6.00;71.20
51867;DHT22;52862;52.504;13.480;2023-02-28T15:44:17;6.00;71.50
51867;DHT22;52862;52.504;13.480;2023-02-28T15:46:55;5.80;71.50
51867;DHT22;52862;52.504;13.480;2023-02-28T15:49:24;5.90;71.70
51867;DHT22;52862;52.504;13.480;2023-02-28T15:51:53;6.10;72.10
51867;DHT22;52862;52.504;13.480;2023-02-28T15:54:23;5.90;72.50
51867;DHT22;52862;52.504;13.480;2023-02-28T15:56:52;5.90;72.70
51867;DHT22;52862;52.504;13.480;2023-02-28T15:59:21;5.90;73.00
51867;DHT22;52862;52.504;13.480;2023-02-28T16:02:03;6.00;73.40
51867;DHT22;52862;52.504;13.480;2023-02-28T16:04:53;5.80;74.00
51867;DHT22;52862;52.504;13.480;2023-02-28T16:07:20;5.90;75.70
51867;DHT22;52862;52.504;13.480;2023-02-28T16:09:47;5.70;75.20
51867;DHT22;52862;52.504;13.480;2023-02-28T16:12:14;5.60;75.20
51867;DHT22;52862;52.504;13.480;2023-02-28T16:14:40;5.40;75.00
51867;DHT22;52862;52.504;13.480;2023-02-28T16:17:20;5.60;75.60
51867;DHT22;52862;52.504;13.480;2023-02-28T16:19:47;5.60;76.40
51867;DHT22;52862;52.504;13.480;2023-02-28T16:22:14;5.50;77.00
51867;DHT22;52862;52.504;13.480;2023-02-28T16:24:41;5.50;77.50
51867;DHT22;52862;52.504;13.480;2023-02-28T16:27:16;5.50;77.90
51867;DHT22;52862;52.504;13.480;2023-02-28T16:29:44;5.50;78.00